Station: EBLG - 22/02/2018 00:20Z (il y a 17 minutes)
EBLG 220020Z 04006KT 7000 NSC M03/M05 Q1022 NOSIG
Vent du 040º - 6 kt
Visibilité: 7000 m
Pas de nuages significatifs
Température: -03ºC - Point de rosée: -05ºC - QNH: 1022 hPa
Pas de changement significatif prévu dans les 2 heures qui suivent l'observation